sensor_id;sensor_type;location;lat;lon;timestamp;P1;durP1;ratioP1;P2;durP2;ratioP2
80926;SDS011;70385;44.538;18.532;2023-09-08T00:02:25;24.88;;;15.43;;
80926;SDS011;70385;44.538;18.532;2023-09-08T00:04:51;23.10;;;15.75;;
80926;SDS011;70385;44.538;18.532;2023-09-08T00:07:17;24.70;;;15.25;;
80926;SDS011;70385;44.538;18.532;2023-09-08T00:09:43;19.58;;;14.60;;
80926;SDS011;70385;44.538;18.532;2023-09-08T00:12:09;22.20;;;15.25;;
80926;SDS011;70385;44.538;18.532;2023-09-08T00:14:34;22.33;;;15.48;;
80926;SDS011;70385;44.538;18.532;2023-09-08T00:17:00;28.45;;;15.57;;
80926;SDS011;70385;44.538;18.532;2023-09-08T00:19:26;23.33;;;15.50;;
80926;SDS011;70385;44.538;18.532;2023-09-08T00:21:52;21.75;;;14.82;;
80926;SDS011;70385;44.538;18.532;2023-09-08T00:24:17;26.55;;;15.05;;
80926;SDS011;70385;44.538;18.532;2023-09-08T00:26:43;22.25;;;14.73;;
80926;SDS011;70385;44.538;18.532;2023-09-08T00:29:09;20.98;;;13.70;;
80926;SDS011;70385;44.538;18.532;2023-09-08T00:31:35;25.75;;;16.00;;
80926;SDS011;70385;44.538;18.532;2023-09-08T00:34:01;24.15;;;14.02;;
80926;SDS011;70385;44.538;18.532;2023-09-08T00:36:26;19.70;;;14.52;;
80926;SDS011;70385;44.538;18.532;2023-09-08T00:38:52;20.73;;;13.40;;
80926;SDS011;70385;44.538;18.532;2023-09-08T00:41:18;19.92;;;13.27;;
80926;SDS011;70385;44.538;18.532;2023-09-08T00:43:44;21.42;;;13.85;;
80926;SDS011;70385;44.538;18.532;2023-09-08T00:46:10;23.58;;;14.40;;
80926;SDS011;70385;44.538;18.532;2023-09-08T00:48:37;18.00;;;12.90;;
80926;SDS011;70385;44.538;18.532;2023-09-08T00:51:03;18.67;;;13.40;;
80926;SDS011;70385;44.538;18.532;2023-09-08T00:53:30;24.85;;;14.35;;
80926;SDS011;70385;44.538;18.532;2023-09-08T00:55:56;19.02;;;13.63;;
80926;SDS011;70385;44.538;18.532;2023-09-08T00:58:24;18.10;;;12.43;;
80926;SDS011;70385;44.538;18.532;2023-09-08T01:00:50;23.05;;;14.55;;
80926;SDS011;70385;44.538;18.532;2023-09-08T01:03:16;21.00;;;14.50;;
80926;SDS011;70385;44.538;18.532;2023-09-08T01:05:42;20.00;;;14.15;;
80926;SDS011;70385;44.538;18.532;2023-09-08T01:08:08;23.10;;;12.57;;
80926;SDS011;70385;44.538;18.532;2023-09-08T01:10:35;22.27;;;13.32;;
80926;SDS011;70385;44.538;18.532;2023-09-08T01:13:03;21.70;;;13.07;;
80926;SDS011;70385;44.538;18.532;2023-09-08T01:15:29;19.65;;;13.25;;
80926;SDS011;70385;44.538;18.532;2023-09-08T01:17:55;17.30;;;12.63;;
80926;SDS011;70385;44.538;18.532;2023-09-08T01:20:33;19.55;;;12.27;;
80926;SDS011;70385;44.538;18.532;2023-09-08T01:23:21;17.83;;;11.95;;
80926;SDS011;70385;44.538;18.532;2023-09-08T01:26:03;19.38;;;13.50;;
80926;SDS011;70385;44.538;18.532;2023-09-08T01:28:33;16.20;;;11.68;;
80926;SDS011;70385;44.538;18.532;2023-09-08T01:30:59;16.23;;;11.98;;
80926;SDS011;70385;44.538;18.532;2023-09-08T01:33:25;16.98;;;11.32;;
80926;SDS011;70385;44.538;18.532;2023-09-08T01:35:52;18.98;;;12.35;;
80926;SDS011;70385;44.538;18.532;2023-09-08T01:38:18;18.77;;;11.93;;
80926;SDS011;70385;44.538;18.532;2023-09-08T01:40:47;18.02;;;12.23;;
80926;SDS011;70385;44.538;18.532;2023-09-08T01:43:12;22.20;;;13.60;;
80926;SDS011;70385;44.538;18.532;2023-09-08T01:45:38;18.50;;;13.75;;
80926;SDS011;70385;44.538;18.532;2023-09-08T01:48:04;18.52;;;14.57;;
80926;SDS011;70385;44.538;18.532;2023-09-08T01:50:31;18.17;;;14.00;;
80926;SDS011;70385;44.538;18.532;2023-09-08T01:52:57;20.02;;;13.85;;
80926;SDS011;70385;44.538;18.532;2023-09-08T01:55:22;24.58;;;14.13;;
80926;SDS011;70385;44.538;18.532;2023-09-08T01:57:48;21.35;;;15.68;;
80926;SDS011;70385;44.538;18.532;2023-09-08T02:00:14;23.88;;;15.23;;
80926;SDS011;70385;44.538;18.532;2023-09-08T02:02:40;20.73;;;13.98;;
80926;SDS011;70385;44.538;18.532;2023-09-08T02:05:06;20.13;;;14.18;;
80926;SDS011;70385;44.538;18.532;2023-09-08T02:07:33;19.90;;;13.43;;
80926;SDS011;70385;44.538;18.532;2023-09-08T02:09:59;19.20;;;13.35;;
80926;SDS011;70385;44.538;18.532;2023-09-08T02:12:24;14.98;;;10.70;;
80926;SDS011;70385;44.538;18.532;2023-09-08T02:14:50;19.13;;;11.07;;
80926;SDS011;70385;44.538;18.532;2023-09-08T02:17:17;17.27;;;12.50;;
80926;SDS011;70385;44.538;18.532;2023-09-08T02:19:43;16.52;;;10.65;;
80926;SDS011;70385;44.538;18.532;2023-09-08T02:22:09;20.08;;;10.40;;
80926;SDS011;70385;44.538;18.532;2023-09-08T02:24:35;15.82;;;9.90;;
80926;SDS011;70385;44.538;18.532;2023-09-08T02:27:01;15.63;;;10.98;;
80926;SDS011;70385;44.538;18.532;2023-09-08T02:29:27;18.33;;;11.88;;
80926;SDS011;70385;44.538;18.532;2023-09-08T02:31:54;18.45;;;10.93;;
80926;SDS011;70385;44.538;18.532;2023-09-08T02:34:19;15.73;;;10.82;;
80926;SDS011;70385;44.538;18.532;2023-09-08T02:36:45;17.48;;;11.68;;
80926;SDS011;70385;44.538;18.532;2023-09-08T02:39:14;13.90;;;10.07;;
80926;SDS011;70385;44.538;18.532;2023-09-08T02:41:39;16.08;;;10.13;;
80926;SDS011;70385;44.538;18.532;2023-09-08T02:44:05;15.93;;;11.20;;
80926;SDS011;70385;44.538;18.532;2023-09-08T02:46:31;20.80;;;12.02;;
80926;SDS011;70385;44.538;18.532;2023-09-08T02:48:58;15.43;;;11.05;;
80926;SDS011;70385;44.538;18.532;2023-09-08T02:51:25;17.70;;;12.20;;
80926;SDS011;70385;44.538;18.532;2023-09-08T02:53:50;15.85;;;11.85;;
80926;SDS011;70385;44.538;18.532;2023-09-08T02:56:16;16.85;;;11.75;;
80926;SDS011;70385;44.538;18.532;2023-09-08T02:58:42;14.80;;;11.27;;
80926;SDS011;70385;44.538;18.532;2023-09-08T03:01:15;21.42;;;11.82;;
80926;SDS011;70385;44.538;18.532;2023-09-08T03:03:45;16.20;;;11.63;;
80926;SDS011;70385;44.538;18.532;2023-09-08T03:06:13;19.83;;;12.02;;
80926;SDS011;70385;44.538;18.532;2023-09-08T03:08:39;12.82;;;10.75;;
80926;SDS011;70385;44.538;18.532;2023-09-08T03:11:07;16.67;;;11.25;;
80926;SDS011;70385;44.538;18.532;2023-09-08T03:13:34;19.00;;;11.40;;
80926;SDS011;70385;44.538;18.532;2023-09-08T03:16:04;15.88;;;11.65;;
80926;SDS011;70385;44.538;18.532;2023-09-08T03:18:32;18.17;;;12.43;;
80926;SDS011;70385;44.538;18.532;2023-09-08T03:20:58;17.95;;;12.30;;
80926;SDS011;70385;44.538;18.532;2023-09-08T03:23:25;18.33;;;12.05;;
80926;SDS011;70385;44.538;18.532;2023-09-08T03:25:51;15.63;;;11.80;;
80926;SDS011;70385;44.538;18.532;2023-09-08T03:28:17;17.50;;;12.65;;
80926;SDS011;70385;44.538;18.532;2023-09-08T03:30:43;19.80;;;12.60;;
80926;SDS011;70385;44.538;18.532;2023-09-08T03:33:08;16.75;;;11.63;;
80926;SDS011;70385;44.538;18.532;2023-09-08T03:35:35;16.58;;;11.45;;
80926;SDS011;70385;44.538;18.532;2023-09-08T03:38:01;13.43;;;10.75;;
80926;SDS011;70385;44.538;18.532;2023-09-08T03:40:26;19.77;;;12.77;;
80926;SDS011;70385;44.538;18.532;2023-09-08T03:42:53;17.05;;;11.77;;
80926;SDS011;70385;44.538;18.532;2023-09-08T03:45:18;17.80;;;13.02;;
80926;SDS011;70385;44.538;18.532;2023-09-08T03:47:44;14.77;;;11.95;;
80926;SDS011;70385;44.538;18.532;2023-09-08T03:50:10;16.35;;;12.23;;
80926;SDS011;70385;44.538;18.532;2023-09-08T03:52:35;18.20;;;12.05;;
80926;SDS011;70385;44.538;18.532;2023-09-08T03:55:01;16.38;;;11.27;;
80926;SDS011;70385;44.538;18.532;2023-09-08T03:57:27;17.67;;;11.30;;
80926;SDS011;70385;44.538;18.532;2023-09-08T03:59:53;22.58;;;10.95;;
80926;SDS011;70385;44.538;18.532;2023-09-08T04:02:18;15.55;;;10.25;;
80926;SDS011;70385;44.538;18.532;2023-09-08T04:04:44;15.57;;;10.13;;
80926;SDS011;70385;44.538;18.532;2023-09-08T04:07:10;15.70;;;10.30;;
80926;SDS011;70385;44.538;18.532;2023-09-08T04:09:36;14.70;;;9.45;;
80926;SDS011;70385;44.538;18.532;2023-09-08T04:12:02;16.67;;;10.68;;
80926;SDS011;70385;44.538;18.532;2023-09-08T04:14:29;14.38;;;10.45;;
80926;SDS011;70385;44.538;18.532;2023-09-08T04:16:55;13.38;;;10.05;;
80926;SDS011;70385;44.538;18.532;2023-09-08T04:19:21;16.75;;;11.15;;
80926;SDS011;70385;44.538;18.532;2023-09-08T04:21:47;19.52;;;11.90;;
80926;SDS011;70385;44.538;18.532;2023-09-08T04:24:12;15.20;;;11.52;;
80926;SDS011;70385;44.538;18.532;2023-09-08T04:26:38;18.42;;;11.85;;
80926;SDS011;70385;44.538;18.532;2023-09-08T04:29:04;22.17;;;11.40;;
80926;SDS011;70385;44.538;18.532;2023-09-08T04:31:30;15.68;;;10.88;;
80926;SDS011;70385;44.538;18.532;2023-09-08T04:33:56;15.38;;;10.85;;
80926;SDS011;70385;44.538;18.532;2023-09-08T04:36:21;19.55;;;12.20;;
80926;SDS011;70385;44.538;18.532;2023-09-08T04:38:48;17.85;;;12.40;;
80926;SDS011;70385;44.538;18.532;2023-09-08T04:41:14;19.70;;;12.40;;
80926;SDS011;70385;44.538;18.532;2023-09-08T04:43:40;18.65;;;12.15;;
80926;SDS011;70385;44.538;18.532;2023-09-08T04:46:06;17.40;;;12.05;;
80926;SDS011;70385;44.538;18.532;2023-09-08T04:48:31;19.65;;;11.75;;
80926;SDS011;70385;44.538;18.532;2023-09-08T04:50:57;25.35;;;12.48;;
80926;SDS011;70385;44.538;18.532;2023-09-08T04:53:23;24.38;;;11.38;;
80926;SDS011;70385;44.538;18.532;2023-09-08T04:55:49;17.60;;;11.48;;
80926;SDS011;70385;44.538;18.532;2023-09-08T04:58:15;19.55;;;11.95;;
80926;SDS011;70385;44.538;18.532;2023-09-08T05:00:41;17.50;;;11.90;;
80926;SDS011;70385;44.538;18.532;2023-09-08T05:03:08;18.77;;;10.52;;
80926;SDS011;70385;44.538;18.532;2023-09-08T05:05:33;20.92;;;11.10;;
80926;SDS011;70385;44.538;18.532;2023-09-08T05:07:59;21.27;;;12.60;;
80926;SDS011;70385;44.538;18.532;2023-09-08T05:10:25;18.08;;;10.93;;
80926;SDS011;70385;44.538;18.532;2023-09-08T05:12:52;19.25;;;12.57;;
80926;SDS011;70385;44.538;18.532;2023-09-08T05:15:18;17.38;;;11.93;;
80926;SDS011;70385;44.538;18.532;2023-09-08T05:17:49;20.70;;;11.50;;
80926;SDS011;70385;44.538;18.532;2023-09-08T05:20:17;18.52;;;12.40;;
80926;SDS011;70385;44.538;18.532;2023-09-08T05:22:43;23.02;;;12.35;;
80926;SDS011;70385;44.538;18.532;2023-09-08T05:25:10;18.85;;;11.32;;
80926;SDS011;70385;44.538;18.532;2023-09-08T05:27:35;18.67;;;11.13;;
80926;SDS011;70385;44.538;18.532;2023-09-08T05:30:02;23.55;;;12.95;;
80926;SDS011;70385;44.538;18.532;2023-09-08T05:32:30;31.70;;;15.45;;
80926;SDS011;70385;44.538;18.532;2023-09-08T05:34:57;33.88;;;15.73;;
80926;SDS011;70385;44.538;18.532;2023-09-08T05:37:23;27.38;;;15.70;;
80926;SDS011;70385;44.538;18.532;2023-09-08T05:39:49;32.53;;;15.55;;
80926;SDS011;70385;44.538;18.532;2023-09-08T05:42:14;35.05;;;19.23;;
80926;SDS011;70385;44.538;18.532;2023-09-08T05:44:40;44.88;;;18.92;;
80926;SDS011;70385;44.538;18.532;2023-09-08T05:47:06;47.25;;;20.55;;
80926;SDS011;70385;44.538;18.532;2023-09-08T05:49:32;36.70;;;18.77;;
80926;SDS011;70385;44.538;18.532;2023-09-08T05:51:58;36.85;;;18.95;;
80926;SDS011;70385;44.538;18.532;2023-09-08T05:54:24;33.80;;;19.00;;
80926;SDS011;70385;44.538;18.532;2023-09-08T05:56:50;34.65;;;17.05;;
80926;SDS011;70385;44.538;18.532;2023-09-08T05:59:16;33.20;;;16.30;;
80926;SDS011;70385;44.538;18.532;2023-09-08T06:01:42;21.92;;;14.35;;
80926;SDS011;70385;44.538;18.532;2023-09-08T06:04:09;20.88;;;13.50;;
80926;SDS011;70385;44.538;18.532;2023-09-08T06:06:35;23.92;;;14.88;;
80926;SDS011;70385;44.538;18.532;2023-09-08T06:09:01;23.65;;;13.90;;
80926;SDS011;70385;44.538;18.532;2023-09-08T06:11:28;22.38;;;14.10;;
80926;SDS011;70385;44.538;18.532;2023-09-08T06:13:55;27.48;;;14.75;;
80926;SDS011;70385;44.538;18.532;2023-09-08T06:16:26;25.33;;;14.52;;
80926;SDS011;70385;44.538;18.532;2023-09-08T06:18:52;23.60;;;13.93;;
80926;SDS011;70385;44.538;18.532;2023-09-08T06:21:21;23.92;;;13.40;;
80926;SDS011;70385;44.538;18.532;2023-09-08T06:23:47;21.30;;;13.23;;
80926;SDS011;70385;44.538;18.532;2023-09-08T06:26:14;22.60;;;13.48;;
80926;SDS011;70385;44.538;18.532;2023-09-08T06:28:39;21.17;;;13.77;;
80926;SDS011;70385;44.538;18.532;2023-09-08T06:31:08;31.63;;;15.52;;
80926;SDS011;70385;44.538;18.532;2023-09-08T06:33:36;27.00;;;14.40;;
80926;SDS011;70385;44.538;18.532;2023-09-08T06:36:02;28.02;;;13.80;;
80926;SDS011;70385;44.538;18.532;2023-09-08T06:38:27;30.75;;;14.93;;
80926;SDS011;70385;44.538;18.532;2023-09-08T06:40:57;24.98;;;14.15;;
80926;SDS011;70385;44.538;18.532;2023-09-08T06:43:23;27.20;;;13.63;;
80926;SDS011;70385;44.538;18.532;2023-09-08T06:45:58;22.95;;;14.35;;
80926;SDS011;70385;44.538;18.532;2023-09-08T06:48:23;26.05;;;14.95;;
80926;SDS011;70385;44.538;18.532;2023-09-08T06:50:52;25.98;;;14.88;;
80926;SDS011;70385;44.538;18.532;2023-09-08T06:53:20;25.23;;;14.93;;
80926;SDS011;70385;44.538;18.532;2023-09-08T06:55:46;19.02;;;12.88;;
80926;SDS011;70385;44.538;18.532;2023-09-08T06:59:29;36.65;;;16.58;;
80926;SDS011;70385;44.538;18.532;2023-09-08T07:01:54;28.02;;;14.45;;
80926;SDS011;70385;44.538;18.532;2023-09-08T07:04:20;31.40;;;15.55;;
80926;SDS011;70385;44.538;18.532;2023-09-08T07:06:46;52.45;;;20.60;;
80926;SDS011;70385;44.538;18.532;2023-09-08T07:09:12;46.72;;;19.75;;
80926;SDS011;70385;44.538;18.532;2023-09-08T07:11:38;58.40;;;21.65;;
80926;SDS011;70385;44.538;18.532;2023-09-08T07:14:05;50.42;;;19.60;;
80926;SDS011;70385;44.538;18.532;2023-09-08T07:16:31;46.45;;;19.98;;
80926;SDS011;70385;44.538;18.532;2023-09-08T07:18:56;53.42;;;20.25;;
80926;SDS011;70385;44.538;18.532;2023-09-08T07:21:23;46.05;;;21.15;;
80926;SDS011;70385;44.538;18.532;2023-09-08T07:23:49;46.97;;;19.83;;
80926;SDS011;70385;44.538;18.532;2023-09-08T07:26:15;54.28;;;21.58;;
80926;SDS011;70385;44.538;18.532;2023-09-08T07:28:42;54.22;;;20.58;;
80926;SDS011;70385;44.538;18.532;2023-09-08T07:31:11;57.83;;;22.05;;
80926;SDS011;70385;44.538;18.532;2023-09-08T07:33:40;60.00;;;22.50;;
80926;SDS011;70385;44.538;18.532;2023-09-08T07:36:06;49.90;;;20.90;;
80926;SDS011;70385;44.538;18.532;2023-09-08T07:38:33;59.28;;;23.02;;
80926;SDS011;70385;44.538;18.532;2023-09-08T07:41:03;53.92;;;22.67;;
80926;SDS011;70385;44.538;18.532;2023-09-08T07:43:30;50.75;;;22.27;;
80926;SDS011;70385;44.538;18.532;2023-09-08T07:45:56;66.05;;;23.83;;
80926;SDS011;70385;44.538;18.532;2023-09-08T07:48:21;69.07;;;22.23;;
80926;SDS011;70385;44.538;18.532;2023-09-08T07:50:47;62.25;;;23.77;;
80926;SDS011;70385;44.538;18.532;2023-09-08T07:53:13;59.88;;;23.30;;
80926;SDS011;70385;44.538;18.532;2023-09-08T07:55:39;59.55;;;22.35;;
80926;SDS011;70385;44.538;18.532;2023-09-08T07:58:04;40.22;;;17.63;;
80926;SDS011;70385;44.538;18.532;2023-09-08T08:00:30;54.05;;;20.48;;
80926;SDS011;70385;44.538;18.532;2023-09-08T08:02:57;46.25;;;20.55;;
80926;SDS011;70385;44.538;18.532;2023-09-08T08:05:24;75.95;;;25.65;;
80926;SDS011;70385;44.538;18.532;2023-09-08T08:07:50;62.13;;;21.95;;
80926;SDS011;70385;44.538;18.532;2023-09-08T08:10:17;47.45;;;20.92;;
80926;SDS011;70385;44.538;18.532;2023-09-08T08:12:43;58.85;;;20.40;;
80926;SDS011;70385;44.538;18.532;2023-09-08T08:15:09;51.50;;;20.65;;
80926;SDS011;70385;44.538;18.532;2023-09-08T08:17:37;48.67;;;19.83;;
80926;SDS011;70385;44.538;18.532;2023-09-08T08:20:07;49.17;;;21.02;;
80926;SDS011;70385;44.538;18.532;2023-09-08T08:22:35;39.58;;;19.60;;
80926;SDS011;70385;44.538;18.532;2023-09-08T08:25:01;53.08;;;20.00;;
80926;SDS011;70385;44.538;18.532;2023-09-08T08:27:30;48.70;;;22.88;;
80926;SDS011;70385;44.538;18.532;2023-09-08T08:29:59;48.10;;;21.90;;
80926;SDS011;70385;44.538;18.532;2023-09-08T08:32:32;53.95;;;23.05;;
80926;SDS011;70385;44.538;18.532;2023-09-08T08:34:58;52.47;;;20.75;;
80926;SDS011;70385;44.538;18.532;2023-09-08T08:37:24;57.38;;;22.63;;
80926;SDS011;70385;44.538;18.532;2023-09-08T08:39:50;48.67;;;21.42;;
80926;SDS011;70385;44.538;18.532;2023-09-08T08:42:16;55.97;;;20.40;;
80926;SDS011;70385;44.538;18.532;2023-09-08T08:44:42;64.03;;;20.88;;
80926;SDS011;70385;44.538;18.532;2023-09-08T08:47:10;47.80;;;17.83;;
80926;SDS011;70385;44.538;18.532;2023-09-08T08:49:36;36.35;;;15.35;;
80926;SDS011;70385;44.538;18.532;2023-09-08T08:52:04;58.78;;;18.02;;
80926;SDS011;70385;44.538;18.532;2023-09-08T08:54:37;45.58;;;15.60;;
80926;SDS011;70385;44.538;18.532;2023-09-08T08:57:04;43.63;;;16.17;;
80926;SDS011;70385;44.538;18.532;2023-09-08T08:59:30;40.50;;;16.83;;
80926;SDS011;70385;44.538;18.532;2023-09-08T09:01:57;36.42;;;16.95;;
80926;SDS011;70385;44.538;18.532;2023-09-08T09:04:24;40.10;;;15.35;;
80926;SDS011;70385;44.538;18.532;2023-09-08T09:06:52;30.48;;;13.60;;
80926;SDS011;70385;44.538;18.532;2023-09-08T09:09:18;33.25;;;14.88;;
80926;SDS011;70385;44.538;18.532;2023-09-08T09:11:44;32.65;;;14.15;;
80926;SDS011;70385;44.538;18.532;2023-09-08T09:14:10;39.70;;;15.00;;
80926;SDS011;70385;44.538;18.532;2023-09-08T09:16:42;36.30;;;15.77;;
80926;SDS011;70385;44.538;18.532;2023-09-08T09:19:10;32.83;;;14.73;;
80926;SDS011;70385;44.538;18.532;2023-09-08T09:21:46;40.30;;;14.65;;
80926;SDS011;70385;44.538;18.532;2023-09-08T09:24:17;33.00;;;15.18;;
80926;SDS011;70385;44.538;18.532;2023-09-08T09:26:53;36.03;;;15.55;;
80926;SDS011;70385;44.538;18.532;2023-09-08T09:29:18;31.48;;;14.68;;
80926;SDS011;70385;44.538;18.532;2023-09-08T09:31:55;29.27;;;15.13;;
80926;SDS011;70385;44.538;18.532;2023-09-08T09:34:22;25.60;;;14.18;;
80926;SDS011;70385;44.538;18.532;2023-09-08T09:36:48;29.02;;;13.90;;
80926;SDS011;70385;44.538;18.532;2023-09-08T09:39:22;36.17;;;16.23;;
80926;SDS011;70385;44.538;18.532;2023-09-08T09:41:49;28.70;;;14.35;;
80926;SDS011;70385;44.538;18.532;2023-09-08T09:44:19;26.08;;;13.93;;
80926;SDS011;70385;44.538;18.532;2023-09-08T09:46:46;23.90;;;13.13;;
80926;SDS011;70385;44.538;18.532;2023-09-08T09:49:13;26.90;;;13.70;;
80926;SDS011;70385;44.538;18.532;2023-09-08T09:51:46;24.52;;;14.38;;
80926;SDS011;70385;44.538;18.532;2023-09-08T09:54:13;29.38;;;14.00;;
80926;SDS011;70385;44.538;18.532;2023-09-08T09:56:40;27.60;;;13.50;;
80926;SDS011;70385;44.538;18.532;2023-09-08T09:59:08;24.35;;;12.07;;
80926;SDS011;70385;44.538;18.532;2023-09-08T10:01:51;27.27;;;11.40;;
80926;SDS011;70385;44.538;18.532;2023-09-08T10:04:17;22.58;;;11.15;;
80926;SDS011;70385;44.538;18.532;2023-09-08T10:06:44;8.98;;;5.65;;
80926;SDS011;70385;44.538;18.532;2023-09-08T10:09:10;8.77;;;5.00;;
80926;SDS011;70385;44.538;18.532;2023-09-08T10:14:08;11.15;;;5.35;;
80926;SDS011;70385;44.538;18.532;2023-09-08T10:16:36;11.15;;;5.47;;
80926;SDS011;70385;44.538;18.532;2023-09-08T10:19:07;10.38;;;5.43;;
80926;SDS011;70385;44.538;18.532;2023-09-08T10:21:40;10.68;;;5.18;;
80926;SDS011;70385;44.538;18.532;2023-09-08T10:29:32;10.35;;;4.82;;
80926;SDS011;70385;44.538;18.532;2023-09-08T10:31:58;6.22;;;4.13;;
80926;SDS011;70385;44.538;18.532;2023-09-08T10:34:24;14.43;;;3.58;;
80926;SDS011;70385;44.538;18.532;2023-09-08T10:36:52;4.95;;;3.42;;
80926;SDS011;70385;44.538;18.532;2023-09-08T10:39:36;6.68;;;3.22;;
80926;SDS011;70385;44.538;18.532;2023-09-08T10:45:02;7.30;;;3.80;;
80926;SDS011;70385;44.538;18.532;2023-09-08T10:50:17;6.70;;;3.80;;
80926;SDS011;70385;44.538;18.532;2023-09-08T10:55:41;7.55;;;4.07;;
80926;SDS011;70385;44.538;18.532;2023-09-08T10:58:09;8.00;;;3.45;;
80926;SDS011;70385;44.538;18.532;2023-09-08T11:00:45;6.88;;;3.85;;
80926;SDS011;70385;44.538;18.532;2023-09-08T11:03:56;6.55;;;3.70;;
80926;SDS011;70385;44.538;18.532;2023-09-08T11:06:15;10.07;;;3.90;;
80926;SDS011;70385;44.538;18.532;2023-09-08T11:08:47;7.75;;;4.05;;
80926;SDS011;70385;44.538;18.532;2023-09-08T11:11:14;6.80;;;3.30;;
80926;SDS011;70385;44.538;18.532;2023-09-08T11:13:41;7.63;;;3.55;;
80926;SDS011;70385;44.538;18.532;2023-09-08T11:16:11;5.20;;;3.67;;
80926;SDS011;70385;44.538;18.532;2023-09-08T11:18:37;5.85;;;3.45;;
80926;SDS011;70385;44.538;18.532;2023-09-08T11:21:03;10.77;;;3.40;;
80926;SDS011;70385;44.538;18.532;2023-09-08T11:23:34;5.57;;;3.22;;
80926;SDS011;70385;44.538;18.532;2023-09-08T11:26:00;4.47;;;3.17;;
80926;SDS011;70385;44.538;18.532;2023-09-08T11:28:28;8.88;;;3.53;;
80926;SDS011;70385;44.538;18.532;2023-09-08T11:30:54;5.18;;;3.45;;
80926;SDS011;70385;44.538;18.532;2023-09-08T11:33:21;4.53;;;3.28;;
80926;SDS011;70385;44.538;18.532;2023-09-08T11:35:50;8.23;;;3.55;;
80926;SDS011;70385;44.538;18.532;2023-09-08T11:38:27;7.03;;;3.38;;
80926;SDS011;70385;44.538;18.532;2023-09-08T11:40:54;9.43;;;3.20;;
80926;SDS011;70385;44.538;18.532;2023-09-08T11:43:22;8.05;;;3.72;;
80926;SDS011;70385;44.538;18.532;2023-09-08T11:45:51;9.43;;;3.40;;
80926;SDS011;70385;44.538;18.532;2023-09-08T11:48:23;6.63;;;3.28;;
80926;SDS011;70385;44.538;18.532;2023-09-08T11:50:52;9.05;;;3.78;;
80926;SDS011;70385;44.538;18.532;2023-09-08T11:53:22;5.00;;;3.17;;
80926;SDS011;70385;44.538;18.532;2023-09-08T11:55:49;7.10;;;3.50;;
80926;SDS011;70385;44.538;18.532;2023-09-08T11:58:16;8.05;;;3.45;;
80926;SDS011;70385;44.538;18.532;2023-09-08T12:00:44;5.85;;;3.70;;
80926;SDS011;70385;44.538;18.532;2023-09-08T12:03:13;4.68;;;3.28;;
80926;SDS011;70385;44.538;18.532;2023-09-08T12:05:51;4.82;;;3.53;;
80926;SDS011;70385;44.538;18.532;2023-09-08T12:08:18;5.05;;;3.05;;
80926;SDS011;70385;44.538;18.532;2023-09-08T12:10:44;6.88;;;3.95;;
80926;SDS011;70385;44.538;18.532;2023-09-08T12:13:09;4.20;;;3.72;;
80926;SDS011;70385;44.538;18.532;2023-09-08T12:15:39;6.65;;;3.70;;
80926;SDS011;70385;44.538;18.532;2023-09-08T12:18:11;9.38;;;4.13;;
80926;SDS011;70385;44.538;18.532;2023-09-08T12:20:39;6.82;;;4.25;;
80926;SDS011;70385;44.538;18.532;2023-09-08T12:23:06;6.25;;;3.53;;
80926;SDS011;70385;44.538;18.532;2023-09-08T12:28:13;6.55;;;3.55;;
80926;SDS011;70385;44.538;18.532;2023-09-08T12:30:39;7.28;;;3.50;;
80926;SDS011;70385;44.538;18.532;2023-09-08T12:33:05;7.68;;;3.35;;
80926;SDS011;70385;44.538;18.532;2023-09-08T12:35:31;7.72;;;3.50;;
80926;SDS011;70385;44.538;18.532;2023-09-08T12:37:57;6.32;;;3.65;;
80926;SDS011;70385;44.538;18.532;2023-09-08T12:40:29;4.68;;;3.20;;
80926;SDS011;70385;44.538;18.532;2023-09-08T12:42:58;5.47;;;3.40;;
80926;SDS011;70385;44.538;18.532;2023-09-08T12:45:27;5.20;;;3.13;;
80926;SDS011;70385;44.538;18.532;2023-09-08T12:47:54;8.48;;;3.92;;
80926;SDS011;70385;44.538;18.532;2023-09-08T12:50:24;4.40;;;3.13;;
80926;SDS011;70385;44.538;18.532;2023-09-08T12:52:51;5.80;;;3.90;;
80926;SDS011;70385;44.538;18.532;2023-09-08T12:55:17;7.88;;;4.63;;
80926;SDS011;70385;44.538;18.532;2023-09-08T12:57:43;6.88;;;4.05;;
80926;SDS011;70385;44.538;18.532;2023-09-08T13:00:12;9.45;;;3.83;;
80926;SDS011;70385;44.538;18.532;2023-09-08T13:02:39;7.47;;;4.05;;
80926;SDS011;70385;44.538;18.532;2023-09-08T13:05:09;4.35;;;3.22;;
80926;SDS011;70385;44.538;18.532;2023-09-08T13:07:35;6.63;;;3.22;;
80926;SDS011;70385;44.538;18.532;2023-09-08T13:10:01;4.32;;;3.10;;
80926;SDS011;70385;44.538;18.532;2023-09-08T13:12:28;5.72;;;3.38;;
80926;SDS011;70385;44.538;18.532;2023-09-08T13:14:56;5.18;;;3.28;;
80926;SDS011;70385;44.538;18.532;2023-09-08T13:17:22;8.73;;;2.90;;
80926;SDS011;70385;44.538;18.532;2023-09-08T13:19:48;4.63;;;3.08;;
80926;SDS011;70385;44.538;18.532;2023-09-08T13:22:13;7.35;;;3.47;;
80926;SDS011;70385;44.538;18.532;2023-09-08T13:24:39;5.53;;;3.22;;
80926;SDS011;70385;44.538;18.532;2023-09-08T13:27:07;5.88;;;3.17;;
80926;SDS011;70385;44.538;18.532;2023-09-08T13:29:33;8.43;;;3.15;;
80926;SDS011;70385;44.538;18.532;2023-09-08T13:31:58;10.00;;;2.95;;
80926;SDS011;70385;44.538;18.532;2023-09-08T13:34:24;4.28;;;3.13;;
80926;SDS011;70385;44.538;18.532;2023-09-08T13:36:50;5.65;;;3.40;;
80926;SDS011;70385;44.538;18.532;2023-09-08T13:39:16;6.47;;;3.30;;
80926;SDS011;70385;44.538;18.532;2023-09-08T13:41:45;5.47;;;2.90;;
80926;SDS011;70385;44.538;18.532;2023-09-08T13:44:21;5.70;;;3.33;;
80926;SDS011;70385;44.538;18.532;2023-09-08T13:46:48;5.72;;;3.33;;
80926;SDS011;70385;44.538;18.532;2023-09-08T13:49:15;6.57;;;2.90;;
80926;SDS011;70385;44.538;18.532;2023-09-08T13:51:42;7.63;;;3.63;;
80926;SDS011;70385;44.538;18.532;2023-09-08T13:54:08;5.15;;;3.25;;
80926;SDS011;70385;44.538;18.532;2023-09-08T13:56:35;7.53;;;3.00;;
80926;SDS011;70385;44.538;18.532;2023-09-08T13:59:04;4.07;;;3.00;;
80926;SDS011;70385;44.538;18.532;2023-09-08T14:01:30;5.13;;;3.38;;
80926;SDS011;70385;44.538;18.532;2023-09-08T14:03:57;5.22;;;2.97;;
80926;SDS011;70385;44.538;18.532;2023-09-08T14:06:23;3.88;;;2.60;;
80926;SDS011;70385;44.538;18.532;2023-09-08T14:08:49;5.85;;;3.35;;
80926;SDS011;70385;44.538;18.532;2023-09-08T14:11:16;6.90;;;3.00;;
80926;SDS011;70385;44.538;18.532;2023-09-08T14:13:42;5.20;;;2.95;;
80926;SDS011;70385;44.538;18.532;2023-09-08T14:16:08;5.28;;;2.80;;
80926;SDS011;70385;44.538;18.532;2023-09-08T14:18:34;4.20;;;2.88;;
80926;SDS011;70385;44.538;18.532;2023-09-08T14:21:01;4.78;;;3.10;;
80926;SDS011;70385;44.538;18.532;2023-09-08T14:23:27;5.65;;;3.25;;
80926;SDS011;70385;44.538;18.532;2023-09-08T14:25:54;8.15;;;3.00;;
80926;SDS011;70385;44.538;18.532;2023-09-08T14:28:20;4.85;;;3.08;;
80926;SDS011;70385;44.538;18.532;2023-09-08T14:30:46;8.15;;;3.67;;
80926;SDS011;70385;44.538;18.532;2023-09-08T14:33:12;10.35;;;3.40;;
80926;SDS011;70385;44.538;18.532;2023-09-08T14:35:41;7.50;;;3.22;;
80926;SDS011;70385;44.538;18.532;2023-09-08T14:38:09;6.70;;;3.15;;